Latest Weather Observations for Essendon Airport

IDV60901

Issued at 6:21 am EDT Sunday 14 February 2016 (issued every 10 minutes, with the page automatically refreshed every 10 minutes)

About weather observations | Map of Melbourne area stations | Latest observations for Melbourne area | Other Formats
Station Details ID: 086038 Name: ESSENDON AIRPORT Lat: -37.73 Lon: 144.91 Height: 78.4 m
Data from the previous 72 hours. | See also: Recent months at Essendon Airport
Date/Time
EDT
Tmp

°C
App
Tmp
°C
Dew
Point
°C
Rel
Hum
%
Delta-T

°C
Wind Press
QNH
hPa
Press
MSL
hPa
Rain
since
9 am
mm
Dir
 
Spd
km/h
Gust
km/h
Spd
kts
Gust
kts
14/06:00am 15.3 13.3 11.5 78 2.1 W 13 17 7 9 1010.1 1009.9 0.0
14/05:30am 15.5 13.8 11.1 75 2.4 W 11 17 6 9 1009.8 1009.6 0.0
14/05:00am 15.4 14.0 10.8 74 2.5 WSW 9 15 5 8 1009.7 1009.5 0.0
14/04:30am 16.6 14.1 11.1 70 3.0 SW 15 19 8 10 1009.5 1009.3 0.0
14/04:00am 17.6 14.8 11.2 66 3.5 SW 17 22 9 12 1009.4 1009.2 0.0
14/03:30am 18.2 15.6 12.0 67 3.4 WSW 17 20 9 11 1009.4 1009.2 0.0
14/03:00am 18.2 16.0 12.2 68 3.3 WSW 15 20 8 11 1009.5 1009.3 0.0
14/02:30am 18.1 15.4 12.8 71 3.0 WSW 19 24 10 13 1009.8 1009.6 0.0
14/02:00am 17.8 15.1 13.5 76 2.4 WSW 20 30 11 16 1010.0 1009.8 0.0
14/01:42am 17.6 15.4 15.0 85 1.5 WSW 20 24 11 13 1010.1 1009.9 0.0
14/01:30am 17.1 14.7 15.4 90 1.0 WSW 22 30 12 16 1010.2 1010.0 0.0
14/01:25am 17.0 14.3 15.5 91 0.9 SW 24 33 13 18 1010.3 1010.1 0.0
14/01:00am 18.4 13.8 14.7 79 2.2 SW 32 46 17 25 1010.4 1010.2 0.0
14/12:30am 20.3 18.3 15.5 74 2.9 SW 20 26 11 14 1010.1 1009.9 0.0
14/12:00am 19.9 19.2 16.5 81 2.1 SSW 15 20 8 11 1010.1 1009.9 0.0
 
Date/Time
EDT
Tmp

°C
App
Tmp
°C
Dew
Point
°C
Rel
Hum
%
Delta-T

°C
Wind Press
QNH
hPa
Press
MSL
hPa
Rain
since
9 am
mm
Dir
 
Spd
km/h
Gust
km/h
Spd
kts
Gust
kts
13/11:58pm 19.8 19.2 16.6 82 1.9 S 15 20 8 11 1010.1 1009.9 0.0
13/11:45pm 19.9 18.4 16.3 80 2.2 S 19 24 10 13 1010.1 1009.9 0.0
13/11:30pm 20.0 18.3 16.2 79 2.3 S 20 26 11 14 1010.1 1009.9 0.0
13/11:19pm 20.2 18.5 16.2 78 2.4 S 20 28 11 15 1010.1 1009.9 0.0
13/11:01pm 20.3 17.9 16.5 79 2.3 S 24 32 13 17 1010.2 1010.0 0.0
13/11:00pm 20.2 18.2 16.4 79 2.3 S 22 32 12 17 1010.1 1009.9 0.0
13/10:30pm 20.2 18.4 15.6 75 2.7 S 19 28 10 15 1010.0 1009.8 0.0
13/10:00pm 20.5 18.4 14.8 70 3.4 S 19 28 10 15 1009.5 1009.3 0.0
13/09:30pm 20.8 18.4 14.5 67 3.7 S 20 30 11 16 1009.1 1008.9 0.0
13/09:00pm 20.9 18.5 14.5 67 3.8 SSW 20 28 11 15 1008.8 1008.6 0.0
13/08:30pm 21.2 19.1 14.6 66 3.9 S 19 28 10 15 1008.5 1008.3 0.0
13/08:00pm 21.8 18.8 14.7 64 4.2 S 24 30 13 16 1008.2 1008.0 0.0
13/07:30pm 22.5 19.4 14.4 60 4.8 S 24 30 13 16 1007.6 1007.3 0.0
13/07:00pm 23.2 18.9 14.5 58 5.2 S 30 37 16 20 1007.3 1007.0 0.0
13/06:30pm 23.5 19.4 14.8 58 5.2 SSW 30 39 16 21 1006.9 1006.6 0.0
13/06:00pm 23.2 19.8 14.7 58 5.1 S 26 41 14 22 1006.6 1006.3 0.0
13/05:30pm 23.9 20.4 15.4 59 5.1 S 28 35 15 19 1006.4 1006.1 0.0
13/05:00pm 24.8 21.9 16.2 58 5.3 S 26 37 14 20 1006.3 1006.0 0.0
13/04:30pm 26.3 22.9 16.8 56 5.9 S 30 41 16 22 1006.1 1005.8 0.0
13/04:00pm 26.0 21.5 15.4 52 6.5 S 33 43 18 23 1006.0 1005.7 0.0
13/03:48pm 29.4 24.8 13.6 38 9.5 S 30 43 16 23 1005.8 1005.5 0.0
13/03:30pm 30.7 27.4 9.6 27 11.9 S 17 22 9 12 1005.6 1005.3 0.0
13/03:00pm 30.8 28.0 11.2 30 11.4 S 17 22 9 12 1005.9 1005.6 0.0
13/02:30pm 29.3 25.8 12.3 35 10.0 S 22 32 12 17 1006.3 1006.0 0.0
13/02:00pm 31.1 28.9 12.0 31 11.3 SSE 15 22 8 12 1006.4 1006.1 0.0
13/01:30pm 29.6 27.8 12.1 34 10.2 S 13 19 7 10 1007.0 1006.7 0.0
13/01:00pm 29.1 27.3 12.1 35 10.0 SSE 13 19 7 10 1007.6 1007.3 0.0
13/12:30pm 28.0 25.6 12.8 39 8.9 S 17 20 9 11 1008.1 1007.9 0.0
13/12:00pm 26.1 23.6 13.6 46 7.4 S 19 24 10 13 1008.5 1008.3 0.0
13/11:30am 25.0 20.8 11.2 42 7.8 S 24 28 13 15 1008.5 1008.3 0.0
13/11:00am 26.1 23.1 13.6 46 7.4 S 22 30 12 16 1008.5 1008.3 0.0
13/10:30am 29.9 27.4 8.3 26 11.9 NNE 11 15 6 8 1008.0 1007.8 0.0
13/10:00am 28.9 26.2 7.5 26 11.6 NNE 11 17 6 9 1008.9 1008.7 0.0
13/09:30am 28.5 25.4 8.7 29 10.9 N 15 19 8 10 1008.9 1008.7 0.0
13/09:00am 27.3 23.3 8.2 30 10.4 N 19 24 10 13 1009.1 1008.9 0.0
13/08:30am 25.8 21.8 8.3 33 9.4 N 19 28 10 15 1008.9 1008.7 0.0
13/08:00am 24.4 21.1 9.6 39 8.1 N 17 20 9 11 1008.6 1008.4 0.0
13/07:30am 22.2 20.4 11.0 49 6.2 NW 11 17 6 9 1008.6 1008.4 0.0
13/07:00am 21.6 18.4 11.3 52 5.7 N 19 24 10 13 1008.3 1008.1 0.0
13/06:30am 20.7 18.7 11.6 56 5.1 NNW 13 17 7 9 1008.3 1008.1 0.0
13/06:00am 19.3 17.7 11.6 61 4.3 NNW 11 15 6 8 1008.1 1007.9 0.0
13/05:30am 16.7 16.6 13.8 83 1.6 W 7 7 4 4 1008.2 1008.0 0.0
13/05:00am 16.9 17.0 14.4 85 1.4 NNW 7 9 4 5 1008.0 1007.8 0.0
13/04:30am 16.6 16.8 14.2 86 1.4 ENE 6 7 3 4 1008.1 1007.9 0.0
13/04:00am 16.6 16.8 14.1 85 1.4 NE 6 7 3 4 1008.4 1008.2 0.0
13/03:30am 17.3 16.6 14.4 83 1.7 NNE 11 13 6 7 1008.6 1008.4 0.0
13/03:00am 16.4 16.3 13.9 85 1.4 NE 7 9 4 5 1008.8 1008.6 0.0
13/02:30am 17.2 17.4 14.1 82 1.8 N 6 9 3 5 1009.1 1008.9 0.0
13/02:00am 17.8 17.9 14.5 81 1.9 N 7 11 4 6 1009.5 1009.3 0.0
13/01:30am 18.2 18.1 14.9 81 1.9 NNW 9 11 5 6 1009.9 1009.7 0.0
13/01:00am 18.4 18.4 15.3 82 1.8 N 9 11 5 6 1010.2 1010.0 0.0
13/12:30am 19.0 19.5 15.5 80 2.1 NNW 7 9 4 5 1010.7 1010.5 0.0
13/12:00am 19.6 19.9 16.1 80 2.1 WNW 9 11 5 6 1011.0 1010.8 0.0
 
Date/Time
EDT
Tmp

°C
App
Tmp
°C
Dew
Point
°C
Rel
Hum
%
Delta-T

°C
Wind Press
QNH
hPa
Press
MSL
hPa
Rain
since
9 am
mm
Dir
 
Spd
km/h
Gust
km/h
Spd
kts
Gust
kts
12/11:30pm 19.7 20.4 16.0 79 2.2 WNW 7 11 4 6 1011.4 1011.2 0.0
12/11:00pm 19.9 20.2 16.0 78 2.3 WSW 9 13 5 7 1011.6 1011.4 0.0
12/10:30pm 20.0 20.3 16.0 78 2.4 SW 9 11 5 6 1011.8 1011.6 0.0
12/10:00pm 20.7 20.3 16.1 75 2.8 SW 13 15 7 8 1012.1 1011.9 0.0
12/09:30pm 20.9 20.7 15.7 72 3.1 SW 11 13 6 7 1012.0 1011.8 0.0
12/09:00pm 21.3 21.1 15.8 71 3.3 SW 11 15 6 8 1011.7 1011.5 0.0
12/08:30pm 21.9 21.3 16.6 72 3.2 SW 15 19 8 10 1011.7 1011.5 0.0
12/08:00pm 22.1 20.7 16.6 71 3.4 SW 19 26 10 14 1011.6 1011.4 0.0
12/07:30pm 22.3 20.5 16.1 68 3.8 SSW 20 24 11 13 1011.5 1011.3 0.0
12/07:00pm 23.0 20.7 15.8 64 4.4 SSW 22 28 12 15 1011.4 1011.2 0.0
12/06:30pm 24.1 22.3 15.9 60 5.0 S 20 30 11 16 1011.3 1011.1 0.0
12/06:00pm 24.5 22.3 16.0 59 5.2 S 22 26 12 14 1011.4 1011.2 0.0
12/05:30pm 25.0 22.9 15.3 55 5.9 S 20 28 11 15 1011.5 1011.3 0.0
12/05:00pm 25.2 22.9 14.6 51 6.3 S 20 26 11 14 1011.7 1011.5 0.0
12/04:30pm 25.7 23.9 14.5 50 6.7 SSE 17 22 9 12 1012.0 1011.8 0.0
12/04:00pm 26.0 23.8 14.5 49 6.9 S 19 26 10 14 1012.4 1012.2 0.0
12/03:30pm 25.4 23.5 14.2 50 6.7 S 17 20 9 11 1012.8 1012.6 0.0
12/03:00pm 25.5 23.4 13.7 48 7.0 S 17 28 9 15 1013.1 1012.9 0.0
12/02:30pm 26.2 23.6 13.7 46 7.4 SSW 20 28 11 15 1013.6 1013.4 0.0
12/02:00pm 24.9 23.4 13.1 48 6.9 SSE 13 22 7 12 1013.9 1013.7 0.0
12/01:30pm 24.7 23.9 13.9 51 6.4 S 11 19 6 10 1014.3 1014.1 0.0
12/01:00pm 23.5 22.9 13.4 53 5.9 SSW 9 17 5 9 1014.7 1014.5 0.0
12/12:30pm 23.6 22.6 13.5 53 5.9 SE 11 20 6 11 1015.0 1014.8 0.0
12/12:00pm 22.1 20.6 13.2 57 5.1 S 13 19 7 10 1015.5 1015.2 0.0
12/11:30am 23.1 23.8 14.4 58 5.1 S 4 13 2 7 1015.8 1015.5 0.0
12/11:00am 21.4 20.8 13.6 61 4.5 SE 9 13 5 7 1015.9 1015.6 0.0
12/10:30am 20.2 19.9 13.4 65 3.9 ESE 7 13 4 7 1016.2 1015.9 0.0
12/10:13am 19.9 19.6 13.4 66 3.7 SE 7 15 4 8 1016.4 1016.1 0.0
12/10:00am 18.8 18.1 13.2 70 3.2 SSE 9 13 5 7 1016.5 1016.2 0.0
12/09:30am 18.1 17.3 13.0 72 2.9 E 9 17 5 9 1016.7 1016.4 0.0
12/09:00am 17.9 16.8 13.2 74 2.7 SE 11 17 6 9 1016.7 1016.4 0.0
12/08:30am 17.7 16.2 13.2 75 2.5 ESE 13 19 7 10 1016.8 1016.5 0.0
12/08:00am 17.7 17.1 13.4 76 2.4 SE 9 13 5 7 1016.7 1016.4 0.0
12/07:48am 17.5 16.9 13.4 77 2.3 SE 9 13 5 7 1016.7 1016.4 0.0
12/07:30am 17.5 16.9 13.6 78 2.2 ESE 9 13 5 7 1016.7 1016.4 0.0
12/07:00am 17.4 16.0 13.5 78 2.2 SE 13 17 7 9 1016.6 1016.3 0.0
12/06:30am 17.6 16.3 13.7 78 2.2 SE 13 17 7 9 1016.5 1016.2 0.0
12/06:00am 17.5 16.2 13.8 79 2.1 SE 13 15 7 8 1016.3 1016.0 0.0
12/05:30am 17.8 17.0 13.9 78 2.2 SSE 11 17 6 9 1016.0 1015.7 0.0
12/05:00am 17.8 16.6 13.9 78 2.2 SE 13 19 7 10 1015.8 1015.5 0.0
12/04:30am 17.8 16.1 13.7 77 2.3 SSE 15 19 8 10 1016.0 1015.7 0.0
12/04:00am 17.6 15.9 13.5 77 2.3 SSE 15 20 8 11 1016.1 1015.8 0.0
12/03:30am 17.0 15.3 13.7 81 1.9 SSE 15 19 8 10 1016.0 1015.7 0.0
12/03:00am 17.1 15.8 13.6 80 2.0 SSE 13 17 7 9 1016.2 1015.9 0.0
12/02:30am 17.0 15.2 13.3 79 2.1 S 15 20 8 11 1016.3 1016.0 0.0
12/02:00am 17.1 15.3 13.2 78 2.2 S 15 22 8 12 1016.4 1016.1 0.0
12/01:30am 17.5 15.3 13.4 77 2.3 S 17 24 9 13 1016.8 1016.5 0.0
12/01:00am 17.6 15.4 13.3 76 2.4 SSW 17 20 9 11 1017.3 1017.0 0.0
12/12:30am 17.5 16.1 13.4 77 2.3 S 13 19 7 10 1017.5 1017.2 0.0
12/12:00am 17.7 15.9 13.2 75 2.5 SSE 15 20 8 11 1017.5 1017.2 0.0
 
Date/Time
EDT
Tmp

°C
App
Tmp
°C
Dew
Point
°C
Rel
Hum
%
Delta-T

°C
Wind Press
QNH
hPa
Press
MSL
hPa
Rain
since
9 am
mm
Dir
 
Spd
km/h
Gust
km/h
Spd
kts
Gust
kts
11/11:30pm 18.0 15.9 13.5 75 2.6 SSE 17 26 9 14 1017.8 1017.5 0.0
11/11:00pm 18.3 15.5 13.2 72 2.9 SSE 20 28 11 15 1017.8 1017.5 0.0
11/10:30pm 18.6 15.3 12.8 69 3.3 SSE 22 30 12 16 1017.9 1017.6 0.0
11/10:00pm 19.0 15.4 12.0 64 3.9 SSE 22 30 12 16 1017.7 1017.4 0.0
11/09:30pm 19.6 16.9 12.8 65 3.8 S 19 26 10 14 1017.2 1016.9 0.0
11/09:00pm 19.7 16.7 12.7 64 3.9 SSE 20 28 11 15 1016.4 1016.1 0.0
11/08:30pm 20.1 16.2 13.3 65 3.9 S 26 33 14 18 1016.2 1015.9 0.0
11/08:00pm 20.3 16.4 14.4 69 3.4 S 28 35 15 19 1016.1 1015.8 0.0
11/07:30pm 21.1 16.7 14.0 64 4.1 SSW 30 39 16 21 1015.9 1015.6 0.0
11/07:00pm 21.7 17.3 14.1 62 4.4 SSW 30 39 16 21 1015.6 1015.3 0.0
11/06:30pm 22.7 18.7 14.0 58 5.1 SSW 28 37 15 20 1015.3 1015.0 0.0
11/06:00pm 22.8 18.7 13.8 57 5.3 S 28 35 15 19 1015.2 1014.9 0.0
11/05:30pm 22.7 18.2 13.7 56 5.2 SSW 30 41 16 22 1015.2 1014.9 0.0
11/05:00pm 23.3 18.8 13.8 55 5.6 S 30 37 16 20 1015.0 1014.8 0.0
11/04:30pm 23.4 18.6 13.0 52 6.0 S 30 41 16 22 1015.2 1014.9 0.0
11/04:00pm 23.8 19.0 13.9 54 5.8 SSW 32 41 17 22 1015.2 1014.9 0.0
11/03:30pm 24.2 20.6 13.1 50 6.4 S 24 35 13 19 1014.8 1014.6 0.0
11/03:00pm 24.0 20.9 13.5 52 6.1 S 22 32 12 17 1015.0 1014.8 0.0
11/02:30pm 23.4 20.3 13.3 53 5.9 S 22 32 12 17 1015.4 1015.1 0.0
11/02:00pm 23.3 20.5 13.2 53 5.8 S 20 28 11 15 1015.6 1015.3 0.0
11/01:30pm 23.4 20.4 13.6 54 5.7 SSW 22 32 12 17 1015.6 1015.3 0.0
11/01:00pm 23.1 20.1 12.7 52 6.0 S 20 30 11 16 1015.8 1015.5 0.0
11/12:30pm 22.9 20.2 12.8 53 5.8 S 19 44 10 24 1016.1 1015.8 0.0
11/12:00pm 22.4 19.9 12.4 53 5.7 SSW 17 33 9 18 1016.6 1016.3 0.0
11/11:30am 21.7 19.2 12.3 55 5.3 S 17 22 9 12 1017.0 1016.7 0.0
11/11:00am 20.7 18.3 12.7 60 4.5 S 17 22 9 12 1017.2 1016.9 0.0
11/10:30am 20.8 18.6 12.0 57 4.9 SSE 15 20 8 11 1017.3 1017.0 0.0
11/10:00am 21.4 19.9 13.1 59 4.8 SSE 13 20 7 11 1017.3 1017.0 0.0
11/09:30am 19.7 17.3 12.5 63 4.1 SE 17 22 9 12 1017.4 1017.1 0.0
11/09:00am 19.3 17.2 13.5 69 3.3 SE 17 22 9 12 1017.3 1017.0 0.0
11/08:30am 19.4 16.8 13.8 70 3.2 SE 20 24 11 13 1017.2 1016.9 0.0
11/08:00am 19.2 17.6 13.8 71 3.1 SE 15 22 8 12 1017.0 1016.7 0.0
11/07:30am 18.2 16.7 14.1 77 2.4 SE 15 17 8 9 1016.8 1016.5 0.0
11/07:00am 18.1 16.5 13.8 76 2.5 SE 15 19 8 10 1016.5 1016.2 0.0
11/06:30am 18.2 17.3 13.7 75 2.6 SE 11 17 6 9 1016.1 1015.8 0.0

Latest Capital City Observations: Canberra | Sydney | Melbourne | Brisbane | Adelaide | Perth | Hobart | Darwin

Other Formats:

Comma delimited format used in spreadsheet applications
http://www.bom.gov.au/fwo/IDV60901/IDV60901.95866.axf

JavaScript Object Notation format (JSON) in row-major order
http://www.bom.gov.au/fwo/IDV60901/IDV60901.95866.json